Airfield :
LOGIN :

Register | Disclaimer

   EN    FR    IT 

 










Legend :    VFR   Marginal VFR   IFR   Intensive IFR   Very Intensive IFR
Visi :
Ceiling :
>= 8 km
>= 3000ft
5 to 8 km
1000 to 3000 ft
1500m to 5 km
500 to 1000 ft
800 to 1500m
200 to 500 ft
< 800m
< 200 ft
Symbols :   Thunderstorms  Fog  Heavy snow  Heavy precipitations  Wind > 20 kt
SIGMETs :     Misc.  Thunderstorms  Icing  Turbulence  Mountain Waves  Volcanic Ashes






- Airport Elevation : 203 ft
- IATA code : XMJ


LFBM - Mont-De-Marsan

CURRENT METAR :
  • 250800Z AUTO 09005KT 050V120 CAVOK 19/10 Q1028 NOSIG

EXPIRED METARs :
  • 250730Z AUTO 07005KT 010V100 CAVOK 18/10 Q1028 NOSIG
  • 250700Z AUTO 05004KT 020V090 CAVOK 17/10 Q1028 NOSIG
  • 250630Z AUTO 06004KT CAVOK 15/10 Q1028 NOSIG
  • 250600Z AUTO 05005KT CAVOK 13/09 Q1028 NOSIG
  • 250530Z AUTO 05004KT CAVOK 12/09 Q1028 NOSIG

TAF TAF LFBM
Valid from the 25 at 03:00 until the 26 at 03:00 UTC


250200Z 2503/2603 09005KT CAVOK



MET'MAP, your aeronautical weather chart ! - Copyright ORBIFLY December 2007 - Disclaimer

ORBIFLY MET'MAP TEAM :

Programming & Development : Alexandra Zaïnal
Concept & original design : Baudouin d'Aumeries
Assistance for programming : Marc-Olivier Méhu
Technical & hardware support : Manuel Goepfert

Contact : metmap@orbifly.com




SOURCES & CREDITS :

   NOAA